Terminal Aerodrome Forecast
Issued by NWS

Current Version | Previous Version | Graphics & Text | Print | Product List | Glossary On
Versions: 1 2 3 4 5 6 7 8 9 10 11 12 13 14 15
000
FTUS41 KPBZ 190800 AAA
TAFHLG
TAF AMD
KHLG 190821Z 1908/2006 26006KT P6SM OVC009
     FM191500 28007KT P6SM BKN015 PROB30 1918/1921 5SM -DZ BR OVC012
     FM200500 27002KT P6SM OVC025=

USA.gov is the U.S. government's official web portal to all federal, state and local government web resources and services.